EKAHEKVG

Guest
Details From EKAH - Aarhus
To EKVG - Vagar
Flight Number -
Tags Generated
Created
Modified
Stats Distance 647 nm / 1,198 km
Max Altitude 0 ft / 0 m
Waypoints 3
Social Downloads 1
Likes 0
Share VATSIM

Download

Looking for another format? Having issues loading an existing format? Contact us
Advertisement - Login to hide

Notes

Generated

Route

EKAH MF060 EKVG

ID Type Via Altitude Latitude Longitude Leg Dist Tot Dist Heading (true) Name
O EKAH APT - 0 ft / 0 m 56.30549˚ 10.59757˚ - 0 nm - -
MF060 FIX - 0 ft / 0 m 62.06049˚ -7.26639˚ 646 nm 646 nm 310° / 294° -
O EKVG APT - 0 ft / 0 m 62.06621˚ -7.28761˚ 0 nm 646 nm 300° / 300° -

Altitude Profile

Advertisement - Login to hide

Weather


0- 5 10 15 20 25 30 35+ Temperature / ° C

Clouds and Precipitation
Forecast for 2017-12-11 18:00 UTC. Updated 38 minutes ago

Ground ~20,000 ft ~40,000 ft Winds

EKAH

Details ICAO EKAH (AAR)
Name Aarhus
Region Denmark / Faroe Islands
Timezone Europe/Copenhagen (UTC+1.0)
Stats Elevation 82 ft / 25 m (AMSL)
Location 56.304265° 10.619452°
Runways 2
Magnetic Variation 3.050° E

METAR

EKAH 111320Z AUTO 03005KT 9999NDV FEW052/// 00/M01 Q0989 R99/790293

Decode

TAF

TAF EKAH 111115Z 1112/1212 02008KT 9999 SCT020 BECMG 1118/1120 4000 -SN BKN010 TEMPO 1120/1208 2000 -SNSN BKN004 BECMG 1208/1210 32010KT 9999 NSW SCT015

Decode

Departure Runways

ID Width Length Bearing (true) Bearing (mag) Surface Threshold Offset Overrun Length
10L 75 ft / 23 m 9,081 ft / 2,768 m 100.30° 97.25° Asphalt 0 ft / 0 m 0 ft / 0 m
10R 148 ft / 45 m 8,837 ft / 2,693 m 100.29° 97.24° Asphalt 0 ft / 0 m 902 ft / 275 m
28L 148 ft / 45 m 8,837 ft / 2,693 m 280.33° 277.28° Asphalt 0 ft / 0 m 738 ft / 225 m
28R 75 ft / 23 m 9,081 ft / 2,768 m 280.34° 277.29° Asphalt 0 ft / 0 m 0 ft / 0 m

EKVG

Details ICAO EKVG (FAE)
Name Vagar
Region Denmark / Faroe Islands
Timezone Atlantic/Faroe (UTC+0.0)
Stats Elevation 280 ft / 85 m (AMSL)
Location 62.063584° -7.277044°
Runways 1
Magnetic Variation 5.386° W

METAR

EKVG 111320Z AUTO 35016KT 9999NDV -SHRA FEW019/// 04/02 Q0997 RMK BKN015/// WIND 850FT 36026G36KT

Decode

TAF

Not found

Destination Runways

ID Width Length Bearing (true) Bearing (mag) Surface Threshold Offset Overrun Length
13 98 ft / 30 m 4,088 ft / 1,246 m 117.92° 123.31° Asphalt 0 ft / 0 m 197 ft / 60 m
31 98 ft / 30 m 4,088 ft / 1,246 m 297.94° 303.33° Asphalt 0 ft / 0 m 197 ft / 60 m

Approach Navaids

Runway Type Ident Frequency Range Bearing (true) Bearing (mag) Slope Elevation
13 Localiser SF 109.10 MHz 17 nm / 31 km 104.19° 109.57° - 268 ft / 82 m (AMSL)
13 DME SF 109.10 MHz 18 nm / 33 km - - - 268 ft / 82 m (AMSL)
31 Localiser MF 110.30 MHz 26 nm / 48 km 296.18° 301.56° - 276 ft / 84 m (AMSL)
31 DME MF 110.30 MHz 25 nm / 46 km - - - 275 ft / 84 m (AMSL)